Pagrindinis puslapis
METAR-TAF:

METAR-TAF

Oro uostai :

Fort Hood-Kilinas, Teksasas, Jungtinės Amerikos Valstijos

platuma: 31-04N, ilguma: 097-50W, Aukštis: 309 m

Dabartinis oras

Ataskaita buvo paskelbta 1 valandą ir 1 minutes, ne 02:56 UTC
Vėjas 5 kt iš Rytų
Temperatūra 19°C
Drėgmė 68%
Slėgis 1023 hPa
Matomumas: 16.1 km
Išsisklaidę debesys ne aukštis 4500 ft

METAR: KGRK 140256Z AUTO 09005KT 10SM SCT045 19/13 A3022 RMK AO2 SLP229 T01850131 52013

Laikas: 22:57 (03:57 UTC)

Prognozė

Ataskaita buvo paskelbta 3 valandos ir 57 minutes, ne 00:00 UTC
Prognozė galioja nuo 14 metu 00 UTC su 15 metu 06 UTC
Vėjas 6 kt nuo kintamojo kryptimis
Matomumas 10 km arba daugiau
Apsiniaukę ne aukštis 4000 ft
Tapsmas
nuo 14 metu 14 UTC su 14 metu 15 UTC
Vėjas 9 kt iš Pietų/Pietryčių
Matomumas 10 km arba daugiau
Su prošvaistėmis ne aukštis 3000 ft

TAF: KGRK 140000Z 1400/1506 VRB06KT 9999 OVC040 QNH3010INS BECMG 1414/1415 15009KT 9999 BKN030 QNH3022INS TX24/1420Z TN15/1411Z

Orai ataskaitas ir orų prognozės (METAR, TAF).

turimą stotys yra geltonos ir raudonos taškus žemėlapyje.

Perkelti pele per norėdami pamatyti stoties vardą.

Tada spustelėkite, norėdami matyti oro stebėjimo ir prognozės.

Norėdami pakeisti žemėlapį: spustelėkite ant žalios mygtukų su juodo kryžiaus žemyn,; žalią mygtuką su brūkšneliu, jei norite nutolinti; arba žalių rodyklių gretimoms žemėlapius.


METAR-TAF: